VVPB/HUI METAR and TAF weather

Enter ICAO airport designator
Station Type Date Time Source
VVPB METAR 2019/10/20 19:00 UTC NOAA

VVPB 201900Z 20002KT 9999 SCT017 SCT070 24/24 Q1013 NOSIG


Station Type Date Time Source
VVPB Decoded METAR 2019/10/20 19:00 UTC NOAA

Hue, Vietnam (VVPB) 16-24N 107-41E 17M
Oct 20, 2019 - 03:00 PM EDT / 2019.10.20 1900 UTC
Wind: from the SSW (200 degrees) at 2 MPH (2 KT):0
Visibility: greater than 7 mile(s):0
Sky conditions: partly cloudy
Temperature: 75 F (24 C)
Dew Point: 75 F (24 C)
Relative Humidity: 100%
Pressure (altimeter): 29.91 in. Hg (1013 hPa)
ob: VVPB 201900Z 20002KT 9999 SCT017 SCT070 24/24 Q1013 NOSIG
cycle: 19

Station Type Date Time Source
VVPB TAF 2019/10/20 18:00 UTC NOAA

TAF VVPB 201700Z 2018/2118 06004KT 9999 SCT017 SCT060
BECMG 2020/2022 3500 BR
BECMG 2100/2101 7000 NSW

Example: see airport list